Data for 05/14/2006

Time Sea-Level Adjusted Pressure Absolute Pressure Temperature Relative Humidity Dew Point   
(mb) (inHg) (mb) (inHg) (C) (F) (%) (C) (F)
00:05 1023 30.21 853 25.19 12.5 54.5 35 -2.4 27.6
00:10 1023 30.21 853 25.19 12.4 54.3 35 -2.4 27.6
00:15 1023 30.21 853 25.19 12.2 54 36 -2.4 27.6
00:20 1023 30.21 853 25.19 12.1 53.7 36 -2.3 27.8
00:25 1023 30.21 853 25.19 11.9 53.4 37 -2.3 27.8
00:30 1023 30.21 853 25.19 11.8 53.2 37 -2.3 27.8
00:35 1024 30.24 853 25.19 11.7 53.1 37 -2.3 27.9
00:40 1024 30.24 853 25.19 11.7 53 38 -2.2 28
00:45 1024 30.24 853 25.19 11.5 52.7 38 -2.3 27.9
00:50 1024 30.24 853 25.19 11.5 52.6 38 -2.4 27.6
00:55 1024 30.24 853 25.19 11.5 52.6 38 -2.5 27.5
01:00 1024 30.24 853 25.19 11.4 52.5 38 -2.4 27.7
01:05 1024 30.24 853 25.19 11.3 52.4 38 -2.5 27.5
01:10 1024 30.24 853 25.19 11.2 52.2 38 -2.4 27.8
01:15 1024 30.24 853 25.19 11.2 52.1 38 -2.5 27.4
01:20 1024 30.24 853 25.19 11.2 52.1 38 -2.5 27.5
01:25 1024 30.24 853 25.19 11.1 52 38 -2.5 27.5
01:30 1024 30.24 853 25.19 11 51.8 39 -2.4 27.7
01:35 1024 30.24 853 25.19 10.9 51.6 39 -2.6 27.4
01:40 1024 30.24 853 25.19 10.9 51.7 39 -2.6 27.3
01:45 1024 30.24 853 25.19 10.9 51.6 39 -2.6 27.4
01:50 1024 30.24 853 25.19 10.9 51.5 39 -2.6 27.4
01:55 1024 30.24 853 25.19 10.8 51.4 39 -2.6 27.3
02:00 1024 30.24 853 25.19 10.7 51.3 39 -2.5 27.6
02:05 1024 30.24 853 25.19 10.6 51 40 -2.5 27.5
02:10 1024 30.24 853 25.19 10.4 50.8 40 -2.6 27.4
02:15 1024 30.24 853 25.19 10.4 50.8 40 -2.5 27.5
02:20 1024 30.24 853 25.19 10.3 50.6 40 -2.5 27.4
02:25 1024 30.24 853 25.19 10.3 50.6 41 -2.5 27.5
02:30 1024 30.24 853 25.19 10.3 50.5 40 -2.5 27.5
02:35 1024 30.24 853 25.19 10.2 50.3 41 -2.5 27.5
02:40 1024 30.24 853 25.19 10.2 50.3 41 -2.5 27.4
02:45 1024 30.24 853 25.19 10.1 50.1 41 -2.4 27.6
02:50 1024 30.24 853 25.19 10 49.9 41 -2.5 27.5
02:55 1024 30.24 853 25.19 9.9 49.8 42 -2.5 27.5
03:00 1024 30.24 853 25.19 9.9 49.8 42 -2.5 27.5
03:05 1024 30.24 853 25.19 9.8 49.7 42 -2.5 27.4
03:10 1024 30.24 853 25.19 9.8 49.7 42 -2.5 27.5
03:15 1024 30.24 853 25.19 9.8 49.6 42 -2.4 27.6
03:20 1024 30.24 853 25.19 9.7 49.4 42 -2.5 27.4
03:25 1024 30.24 854 25.22 9.7 49.4 42 -2.5 27.5
03:30 1024 30.24 854 25.22 9.6 49.2 43 -2.4 27.6
03:35 1024 30.24 854 25.22 9.6 49.2 43 -2.5 27.5
03:40 1024 30.24 854 25.22 9.6 49.2 43 -2.5 27.5
03:45 1024 30.24 854 25.22 9.5 49 43 -2.5 27.5
03:50 1024 30.24 854 25.22 9.4 49 43 -2.6 27.4
03:55 1024 30.24 854 25.22 9.5 49 43 -2.5 27.5
04:00 1024 30.24 854 25.22 9.4 48.8 43 -2.6 27.3
04:05 1024 30.24 854 25.22 9.4 49 43 -2.6 27.3
04:10 1024 30.24 854 25.22 9.4 48.9 43 -2.6 27.2
04:15 1025 30.27 854 25.22 9.4 49 42 -2.8 27
04:20 1025 30.27 854 25.22 9.5 49 42 -2.8 27
04:25 1025 30.27 854 25.22 9.4 49 42 -2.7 27.1
04:30 1025 30.27 854 25.22 9.4 48.9 42 -2.9 26.8
04:35 1025 30.27 854 25.22 9.4 49 42 -2.9 26.8
04:40 1025 30.27 854 25.22 9.4 48.9 42 -2.8 26.9
04:45 1025 30.27 854 25.22 9.3 48.8 42 -2.8 27
04:50 1025 30.27 854 25.22 9.3 48.7 43 -2.8 27
04:55 1025 30.27 854 25.22 9.2 48.5 43 -2.8 27
05:00 1025 30.27 854 25.22 9.1 48.4 43 -2.8 27
05:05 1025 30.27 854 25.22 9.1 48.4 43 -2.8 27
05:10 1025 30.27 854 25.22 9 48.1 44 -2.7 27.1
05:15 1025 30.27 854 25.22 8.9 48 44 -2.8 27
05:20 1025 30.27 854 25.22 8.8 47.8 44 -2.7 27.1
05:25 1025 30.27 854 25.22 8.8 47.8 44 -2.8 27
05:30 1025 30.27 854 25.22 8.8 47.8 44 -2.8 26.9
05:35 1025 30.27 854 25.22 8.8 47.8 44 -2.9 26.7
05:40 1025 30.27 854 25.22 8.7 47.7 44 -3 26.7
05:45 1025 30.27 854 25.22 8.8 47.8 43 -3 26.6
05:50 1025 30.27 855 25.25 8.8 47.8 43 -2.9 26.7
05:55 1025 30.27 855 25.25 8.8 47.8 43 -3 26.6
06:00 1025 30.27 855 25.25 8.8 47.9 43 -3.1 26.5
06:05 1025 30.27 855 25.25 8.8 47.9 44 -2.9 26.8
06:10 1026 30.3 855 25.25 8.7 47.6 44 -2.9 26.9
06:15 1026 30.3 855 25.25 8.6 47.5 44 -2.9 26.8
06:20 1026 30.3 855 25.25 8.7 47.6 44 -3 26.6
06:25 1026 30.3 855 25.25 8.8 47.9 43 -3 26.6
06:30 1026 30.3 855 25.25 8.9 48.1 43 -2.9 26.8
06:35 1026 30.3 855 25.25 8.9 48 43 -2.8 26.9
06:40 1026 30.3 855 25.25 8.9 48 44 -2.7 27.1
06:45 1026 30.3 855 25.25 8.8 47.8 44 -2.9 26.8
06:50 1026 30.3 855 25.25 8.9 47.9 44 -2.6 27.4
06:55 1026 30.3 855 25.25 9 48.1 43 -2.8 26.9
07:00 1026 30.3 855 25.25 9.2 48.6 42 -2.9 26.7
07:05 1026 30.3 855 25.25 9.4 48.9 42 -2.8 27
07:10 1026 30.3 855 25.25 9.5 49 42 -2.7 27.1
07:15 1026 30.3 855 25.25 9.7 49.4 41 -2.9 26.8
07:20 1026 30.3 855 25.25 9.9 49.8 41 -2.8 26.9
07:25 1026 30.3 855 25.25 10 50 41 -2.6 27.4
07:30 1026 30.3 855 25.25 10.1 50.2 41 -2.7 27.2
07:35 1026 30.3 855 25.25 10.4 50.7 39 -2.8 26.9
07:40 1026 30.3 855 25.25 10.7 51.2 39 -2.7 27.2
07:45 1026 30.3 855 25.25 10.9 51.6 38 -2.7 27.1
07:50 1026 30.3 855 25.25 11.1 51.9 38 -2.8 27
07:55 1026 30.3 855 25.25 11.3 52.3 38 -2.5 27.4
08:00 1026 30.3 856 25.28 11.4 52.5 37 -2.7 27.2
08:05 1026 30.3 856 25.28 11.7 53 37 -2.5 27.5
08:10 1026 30.3 856 25.28 11.8 53.2 37 -2.4 27.6
08:15 1026 30.3 856 25.28 12.2 53.9 35 -2.7 27.1
08:20 1026 30.3 856 25.28 12.4 54.2 36 -2.2 28
08:25 1026 30.3 856 25.28 12.7 54.9 35 -2.3 27.9
08:30 1026 30.3 856 25.28 12.9 55.1 35 -2.3 27.9
08:35 1026 30.3 856 25.28 13.3 56 35 -1.9 28.6
08:40 1026 30.3 856 25.28 12.8 55 36 -1.8 28.8
08:45 1026 30.3 856 25.28 12.8 55 36 -1.9 28.5
08:50 1026 30.3 856 25.28 12.6 54.6 36 -1.9 28.6
08:55 1026 30.3 856 25.28 13.1 55.5 35 -2 28.4
09:00 1026 30.3 856 25.28 13.6 56.5 34 -2 28.4
09:05 1026 30.3 856 25.28 13.9 57 33 -1.9 28.7
09:10 1026 30.3 856 25.28 13.6 56.4 34 -2.1 28.3
09:15 1027 30.33 856 25.28 13.9 57 34 -1.7 28.9
09:20 1027 30.33 856 25.28 14 57.3 34 -1.6 29.2
09:25 1027 30.33 856 25.28 14.6 58.2 31 -2.1 28.2
09:30 1027 30.33 856 25.28 14.9 58.9 32 -1.4 29.4
09:35 1027 30.33 856 25.28 15.6 60.1 31 -1.3 29.7
09:40 1027 30.33 856 25.28 15.4 59.7 32 -1.3 29.6
09:45 1027 30.33 856 25.28 15.6 60 32 -1.1 29.9
09:50 1027 30.33 856 25.28 15.9 60.5 30 -1.4 29.4
09:55 1027 30.33 856 25.28 16.3 61.3 30 -1.3 29.6
10:00 1027 30.33 856 25.28 15.4 59.8 32 -1 30.1
10:05 1027 30.33 856 25.28 16 60.8 31 -1.2 29.8
10:10 1027 30.33 856 25.28 16.6 61.9 31 -0.7 30.8
10:15 1027 30.33 856 25.28 16.7 62.1 30 -0.8 30.6
10:20 1027 30.33 856 25.28 16.8 62.2 29 -1.1 30
10:25 1027 30.33 856 25.28 16.4 61.4 31 -0.9 30.3
10:30 1027 30.33 856 25.28 16.2 61.1 31 -0.8 30.6
10:35 1027 30.33 856 25.28 16.2 61.2 30 -1.3 29.6
10:40 1027 30.33 856 25.28 16.6 61.9 31 -0.4 31.2
10:45 1027 30.33 856 25.28 17.1 62.7 30 -0.5 31
10:50 1027 30.33 856 25.28 17.8 64 29 -0.4 31.3
10:55 1027 30.33 856 25.28 17.8 64 29 -0.2 31.6
11:00 1026 30.3 856 25.28 18 64.3 29 -0.2 31.7
11:05 1026 30.3 856 25.28 18.3 65 29 0.2 32.4
11:10 1026 30.3 856 25.28 18.2 64.8 29 -0.2 31.6
11:15 1026 30.3 856 25.28 18.4 65.1 30 0.5 32.8
11:20 1026 30.3 856 25.28 18.4 65.2 29 0.1 32.2
11:25 1026 30.3 856 25.28 18.8 65.8 28 -0.1 31.8
11:30 1026 30.3 856 25.28 19 66.3 28 0.1 32.3
11:35 1026 30.3 856 25.28 18.7 65.6 29 0.6 33.1
11:40 1026 30.3 856 25.28 18.8 65.9 29 0.6 33
11:45 1026 30.3 856 25.28 18.6 65.5 28 0.1 32.2
11:50 1026 30.3 855 25.25 18.3 64.9 29 0.1 32.2
11:55 1026 30.3 855 25.25 19.1 66.4 29 0.9 33.6
12:00 1026 30.3 855 25.25 19.5 67 28 0.4 32.8
12:05 1026 30.3 855 25.25 20.3 68.5 27 0.8 33.5
12:10 1026 30.3 855 25.25 20.2 68.3 28 1.2 34.2
12:15 1026 30.3 855 25.25 20.2 68.3 28 1.3 34.3
12:20 1026 30.3 855 25.25 20.3 68.5 28 1.5 34.7
12:25 1026 30.3 855 25.25 20.2 68.3 29 1.7 35
12:30 1026 30.3 855 25.25 19.6 67.3 29 1.3 34.4
12:35 1026 30.3 855 25.25 19.8 67.7 28 0.8 33.4
12:40 1026 30.3 855 25.25 21 69.9 26 0.8 33.5
12:45 1026 30.3 855 25.25 20.9 69.7 28 1.7 35.1
12:50 1026 30.3 855 25.25 20.2 68.3 28 1.2 34.1
12:55 1026 30.3 855 25.25 21.1 70 26 1 33.7
13:00 1026 30.3 855 25.25 21.2 70.1 26 1 33.8
13:05 1026 30.3 855 25.25 21.2 70.2 27 1.6 34.8
13:10 1026 30.3 855 25.25 21 69.7 26 0.9 33.7
13:15 1026 30.3 855 25.25 21.5 70.7 24 0.1 32.2
13:20 1026 30.3 855 25.25 22.6 72.7 22 -0 32
13:25 1026 30.3 855 25.25 22.2 71.9 24 0.6 33
13:30 1026 30.3 855 25.25 21.4 70.6 25 1 33.9
13:35 1026 30.3 855 25.25 21.3 70.4 26 1.4 34.4
13:40 1026 30.3 855 25.25 21.8 71.2 24 0.7 33.3
13:45 1026 30.3 855 25.25 22.1 71.9 23 0.4 32.7
13:50 1026 30.3 855 25.25 22 71.6 23 -0.1 31.9
13:55 1026 30.3 855 25.25 22.4 72.3 22 -0.4 31.3
14:00 1026 30.3 855 25.25 22.4 72.2 21 -1 30.2
14:05 1026 30.3 855 25.25 22.8 73 21 -0.6 30.9
14:10 1026 30.3 855 25.25 22.9 73.2 21 -0.7 30.8
14:15 1026 30.3 855 25.25 22.6 72.7 21 -0.7 30.8
14:20 1026 30.3 855 25.25 22.9 73.2 20 -1.4 29.6
14:25 1026 30.3 855 25.25 22.9 73.3 20 -1.2 29.9
14:30 1026 30.3 855 25.25 22.8 73.1 20 -1.2 29.9
14:35 1026 30.3 855 25.25 22.7 72.8 20 -1 30.3
14:40 1025 30.27 855 25.25 22.7 72.8 21 -0.8 30.6
14:45 1026 30.3 855 25.25 22.6 72.7 20 -1 30.2
14:50 1026 30.3 855 25.25 22.7 72.8 20 -1 30.3
14:55 1026 30.3 855 25.25 22.5 72.5 20 -1.1 30
15:00 1025 30.27 855 25.25 22.6 72.7 21 -0.5 31
15:05 1025 30.27 855 25.25 22.5 72.4 22 -0.2 31.7
15:10 1025 30.27 855 25.25 22.7 72.9 21 -0.8 30.6
15:15 1025 30.27 855 25.25 22.6 72.7 21 -0.6 31
15:20 1025 30.27 855 25.25 22.7 72.9 22 -0.2 31.6
15:25 1025 30.27 855 25.25 22.9 73.1 20 -0.9 30.4
15:30 1025 30.27 855 25.25 22.5 72.4 21 -0.5 31.2
15:35 1025 30.27 855 25.25 22.8 73.1 20 -1 30.2
15:40 1025 30.27 854 25.22 23 73.4 21 -0.4 31.3
15:45 1025 30.27 854 25.22 23 73.4 21 -0.4 31.2
15:50 1025 30.27 854 25.22 23 73.4 20 -1.1 30
15:55 1025 30.27 854 25.22 23 73.4 20 -0.9 30.4
16:00 1025 30.27 854 25.22 23.2 73.7 20 -1 30.2
16:05 1025 30.27 854 25.22 23.1 73.5 20 -1 30.1
16:10 1025 30.27 854 25.22 22.9 73.1 20 -1.1 30
16:15 1025 30.27 854 25.22 22.6 72.7 20 -1.4 29.5
16:20 1025 30.27 854 25.22 23.1 73.6 19 -1.3 29.6
16:25 1025 30.27 854 25.22 23 73.4 20 -1 30.3
16:30 1025 30.27 854 25.22 23.5 74.3 19 -1.3 29.6
16:35 1025 30.27 854 25.22 23.4 74 19 -1.7 29
16:40 1025 30.27 854 25.22 23.1 73.6 19 -1.6 29.1
16:45 1025 30.27 854 25.22 23 73.4 20 -1.2 29.8
16:50 1025 30.27 854 25.22 23.1 73.6 19 -1.8 28.8
16:55 1025 30.27 854 25.22 22.5 72.5 19 -2.2 28.1
17:00 1025 30.27 854 25.22 22.9 73.1 19 -1.4 29.4
17:05 1025 30.27 854 25.22 22.9 73.3 19 -2 28.3
17:10 1025 30.27 854 25.22 22.5 72.5 18 -2.5 27.5
17:15 1025 30.27 854 25.22 22.3 72.1 19 -2.6 27.4
17:20 1025 30.27 854 25.22 22.3 72.2 19 -2.1 28.2
17:25 1025 30.27 854 25.22 22.6 72.6 19 -2.1 28.2
17:30 1025 30.27 854 25.22 22.8 73 18 -2.5 27.5
17:35 1025 30.27 854 25.22 22.6 72.6 18 -2.8 26.9
17:40 1025 30.27 854 25.22 22.6 72.7 18 -2.6 27.3
17:45 1025 30.27 854 25.22 22.4 72.3 18 -2.6 27.3
17:50 1025 30.27 854 25.22 22.5 72.4 19 -2.5 27.6
17:55 1025 30.27 854 25.22 22.4 72.3 19 -2.4 27.8
18:00 1025 30.27 854 25.22 22.3 72.2 18 -2.7 27.2
18:05 1025 30.27 854 25.22 22.2 72 19 -2.3 27.9
18:10 1025 30.27 854 25.22 22.1 71.9 19 -2.7 27.1
18:15 1025 30.27 854 25.22 21.8 71.2 19 -2.9 26.8
18:20 1025 30.27 854 25.22 21.7 71 19 -2.6 27.4
18:25 1025 30.27 854 25.22 21.9 71.4 19 -2.7 27.2
18:30 1025 30.27 854 25.22 21.6 70.8 19 -2.9 26.8
18:35 1025 30.27 854 25.22 21.4 70.5 19 -3 26.6
18:40 1025 30.27 854 25.22 21.4 70.4 19 -2.9 26.8
18:45 1025 30.27 854 25.22 21.4 70.5 19 -2.8 27
18:50 1025 30.27 854 25.22 21.3 70.3 19 -3.2 26.2
18:55 1025 30.27 854 25.22 21.1 70 19 -3.2 26.3
19:00 1025 30.27 854 25.22 21 69.7 20 -2.9 26.9
19:05 1025 30.27 854 25.22 20.8 69.4 20 -2.9 26.8
19:10 1025 30.27 854 25.22 20.7 69.2 20 -2.9 26.8
19:15 1025 30.27 854 25.22 20.5 68.8 20 -3.4 25.9
19:20 1025 30.27 854 25.22 20.3 68.6 21 -2.8 26.9
19:25 1025 30.27 854 25.22 20.2 68.3 21 -2.7 27.1
19:30 1025 30.27 854 25.22 20 68 21 -2.8 26.9
19:35 1025 30.27 854 25.22 19.9 67.8 21 -2.8 26.9
19:40 1025 30.27 854 25.22 19.8 67.7 21 -2.8 27
19:45 1025 30.27 854 25.22 19.7 67.5 21 -3.1 26.5
19:50 1025 30.27 854 25.22 19.6 67.3 21 -3.1 26.4
19:55 1025 30.27 854 25.22 19.5 67.1 22 -2.8 27
20:00 1025 30.27 854 25.22 19.4 66.8 22 -2.6 27.3
20:05 1025 30.27 854 25.22 19.2 66.5 22 -2.7 27.2
20:10 1025 30.27 855 25.25 19.1 66.3 22 -2.8 27
20:15 1025 30.27 855 25.25 18.9 66 23 -2.6 27.4
20:20 1025 30.27 855 25.25 18.7 65.7 23 -2.8 27
20:25 1025 30.27 855 25.25 18.6 65.5 23 -2.9 26.9
20:30 1025 30.27 855 25.25 18.4 65.2 23 -2.8 26.9
20:35 1025 30.27 855 25.25 18.3 64.9 23 -3.1 26.5
20:40 1025 30.27 855 25.25 18.1 64.6 23 -3 26.6
20:45 1025 30.27 855 25.25 17.8 64 24 -2.8 27
20:50 1025 30.27 855 25.25 17.6 63.6 24 -3.1 26.5
20:55 1026 30.3 855 25.25 17.5 63.5 24 -3 26.6
21:00 1026 30.3 855 25.25 17.5 63.4 24 -3 26.6
21:05 1026 30.3 855 25.25 17.4 63.3 25 -2.9 26.8
21:10 1026 30.3 855 25.25 17.3 63.1 25 -2.8 26.9
21:15 1026 30.3 855 25.25 17.2 62.9 25 -2.9 26.7
21:20 1026 30.3 855 25.25 17.1 62.7 25 -2.9 26.7
21:25 1026 30.3 855 25.25 17 62.6 26 -2.7 27.2
21:30 1026 30.3 855 25.25 16.9 62.5 26 -2.5 27.5
21:35 1026 30.3 855 25.25 16.8 62.2 27 -2.4 27.6
21:40 1026 30.3 855 25.25 16.7 62.1 27 -2.4 27.7
21:45 1026 30.3 855 25.25 16.6 61.8 28 -2.1 28.1
21:50 1026 30.3 855 25.25 16.3 61.4 28 -2.1 28.2
21:55 1026 30.3 855 25.25 16.3 61.3 28 -2.3 27.8
22:00 1026 30.3 855 25.25 16.3 61.3 28 -2.3 27.9
22:05 1026 30.3 855 25.25 16.3 61.3 28 -2.2 28
22:10 1026 30.3 855 25.25 16.2 61.2 28 -2.2 28.1
22:15 1026 30.3 855 25.25 16.1 61 28 -2.2 28
22:20 1026 30.3 855 25.25 16 60.9 28 -2.2 28
22:25 1026 30.3 855 25.25 15.9 60.6 28 -2.3 27.9
22:30 1026 30.3 855 25.25 15.8 60.5 28 -2.3 27.8
22:35 1026 30.3 855 25.25 15.8 60.4 29 -2.3 27.8
22:40 1026 30.3 855 25.25 15.7 60.2 29 -2.4 27.6
22:45 1026 30.3 855 25.25 15.5 60 29 -2.3 27.8
22:50 1026 30.3 855 25.25 15.4 59.6 29 -2.4 27.6
22:55 1026 30.3 855 25.25 15.3 59.6 29 -2.5 27.5
23:00 1026 30.3 856 25.28 15.3 59.6 29 -2.5 27.5
23:05 1026 30.3 856 25.28 15.2 59.4 29 -2.5 27.6
23:10 1026 30.3 856 25.28 15.1 59.2 29 -2.6 27.3
23:15 1026 30.3 856 25.28 15.2 59.3 29 -2.5 27.5
23:20 1026 30.3 856 25.28 15.1 59.2 30 -2.5 27.6
23:25 1026 30.3 856 25.28 15.1 59.1 30 -2.5 27.6
23:30 1026 30.3 856 25.28 15 59 30 -2.5 27.6
23:35 1026 30.3 856 25.28 15 59 30 -2.4 27.7
23:40 1027 30.33 856 25.28 15 58.9 30 -2.3 27.9
23:45 1027 30.33 856 25.28 14.8 58.7 31 -2.2 28.1
23:50 1027 30.33 856 25.28 14.6 58.3 31 -2.2 28.1
23:55 1027 30.33 856 25.28 14.5 58.1 32 -2.1 28.2
24:00 1027 30.33 856 25.28 14.4 57.9 32 -2.2 28.1